createdAt,value
2019-04-30T00:00:18.321Z,41.11
2019-04-30T00:01:18.879Z,41.31
2019-04-30T00:02:17.211Z,41.91
2019-04-30T00:03:19.577Z,41.11
2019-04-30T00:04:17.192Z,41.31
2019-04-30T00:05:18.873Z,41.21
2019-04-30T00:06:17.165Z,41.31
2019-04-30T00:07:19.027Z,41.71
2019-04-30T00:08:17.164Z,41.91
2019-04-30T00:09:19.054Z,41.91
2019-04-30T00:10:17.124Z,41.31
2019-04-30T00:11:19.523Z,41.31
2019-04-30T00:12:17.104Z,41.71
2019-04-30T00:13:20.672Z,42.02
2019-04-30T00:14:17.078Z,42.02
2019-04-30T00:15:19.516Z,41.91
2019-04-30T00:16:17.053Z,41.41
2019-04-30T00:17:19.599Z,41.71
2019-04-30T00:18:17.055Z,41.31
2019-04-30T00:19:19.590Z,41.51
2019-04-30T00:20:17.753Z,41.71
2019-04-30T00:21:18.719Z,42.11
2019-04-30T00:22:17.007Z,42.02
2019-04-30T00:23:18.062Z,41.51
2019-04-30T00:24:17.983Z,41.51
2019-04-30T00:25:19.621Z,41.71
2019-04-30T00:26:17.938Z,41.71
2019-04-30T00:27:21.100Z,41.71
2019-04-30T00:28:17.915Z,41.51
2019-04-30T00:29:26.546Z,41.51
2019-04-30T00:30:17.896Z,41.51
2019-04-30T00:31:23.460Z,41.51
2019-04-30T00:32:17.871Z,41.41
2019-04-30T00:33:22.056Z,41.51
2019-04-30T00:34:17.873Z,41.51
2019-04-30T00:35:19.490Z,41.51
2019-04-30T00:36:17.401Z,41.51
2019-04-30T00:37:18.792Z,41.71
2019-04-30T00:38:16.808Z,41.71
2019-04-30T00:39:16.880Z,41.71
2019-04-30T00:40:16.782Z,41.71
2019-04-30T00:41:16.770Z,41.71
2019-04-30T00:42:23.918Z,41.71
2019-04-30T00:43:17.747Z,41.61
2019-04-30T00:44:19.898Z,41.63
2019-04-30T00:45:17.724Z,41.61
2019-04-30T00:46:24.494Z,41.71
2019-04-30T00:47:17.702Z,41.71
2019-04-30T00:48:26.594Z,41.71
2019-04-30T00:49:22.906Z,41.71
2019-04-30T00:50:17.669Z,41.71
2019-04-30T00:51:20.975Z,41.61
2019-04-30T00:52:16.650Z,41.61
2019-04-30T00:53:16.736Z,41.74
2019-04-30T00:54:17.632Z,41.74
2019-04-30T00:55:16.613Z,41.51
2019-04-30T00:56:19.868Z,41.61
2019-04-30T00:57:17.592Z,41.51
2019-04-30T00:58:24.471Z,41.21
2019-04-30T00:59:17.588Z,41.71
2019-04-30T01:00:19.668Z,41.71
2019-04-30T01:01:17.554Z,41.74
2019-04-30T01:02:19.915Z,41.74
2019-04-30T01:03:17.521Z,41.71
2019-04-30T01:04:19.424Z,41.51
2019-04-30T01:05:17.498Z,41.74
2019-04-30T01:06:17.188Z,41.43
2019-04-30T01:07:17.475Z,41.51
2019-04-30T01:08:16.466Z,41.43
2019-04-30T01:09:16.476Z,41.33
2019-04-30T01:10:19.562Z,41.61
2019-04-30T01:11:17.435Z,41.13
2019-04-30T01:12:17.361Z,41.61
2019-04-30T01:13:19.071Z,41.61
2019-04-30T01:14:16.423Z,41.71
2019-04-30T01:15:16.388Z,41.33
2019-04-30T01:16:16.380Z,41.33
2019-04-30T01:17:16.365Z,41.33
2019-04-30T01:18:16.353Z,41.74
2019-04-30T01:19:28.923Z,41.31
2019-04-30T01:20:19.240Z,41.71
2019-04-30T01:21:16.325Z,41.43
2019-04-30T01:22:21.288Z,41.33
2019-04-30T01:23:17.301Z,41.83
2019-04-30T01:24:16.308Z,41.71
2019-04-30T01:25:16.296Z,41.83
2019-04-30T01:26:16.264Z,41.83
2019-04-30T01:27:16.252Z,41.74
2019-04-30T01:28:20.219Z,41.83
2019-04-30T01:29:19.115Z,41.63
2019-04-30T01:30:18.693Z,41.33
2019-04-30T01:31:18.785Z,41.33
2019-04-30T01:32:19.867Z,41.74
2019-04-30T01:33:16.186Z,41.33
2019-04-30T01:34:16.173Z,41.63
2019-04-30T01:35:16.184Z,41.43
2019-04-30T01:36:16.151Z,41.74
2019-04-30T01:37:16.140Z,41.74
2019-04-30T01:38:16.131Z,41.83
2019-04-30T01:39:16.122Z,41.74
2019-04-30T01:40:16.126Z,41.33
2019-04-30T01:41:20.249Z,41.43
2019-04-30T01:42:18.502Z,41.83
2019-04-30T01:43:16.072Z,41.33
2019-04-30T01:44:16.064Z,41.43
2019-04-30T01:45:16.070Z,41.33
2019-04-30T01:46:16.038Z,41.33
2019-04-30T01:47:16.034Z,41.33
2019-04-30T01:48:16.015Z,41.53
2019-04-30T01:49:16.004Z,41.33
2019-04-30T01:50:16.014Z,41.43
2019-04-30T01:51:20.470Z,41.33
2019-04-30T01:52:16.972Z,41.53
2019-04-30T01:53:15.959Z,41.53
2019-04-30T01:54:21.132Z,41.33
2019-04-30T01:55:16.959Z,41.23
2019-04-30T01:56:15.926Z,41.13
2019-04-30T01:57:15.913Z,41.53
2019-04-30T01:58:15.904Z,41.33
2019-04-30T01:59:15.895Z,41.53
2019-04-30T02:00:15.906Z,41.13
2019-04-30T02:01:15.871Z,41.13
2019-04-30T02:02:15.857Z,41.63
2019-04-30T02:03:15.848Z,41.63
2019-04-30T02:04:15.835Z,41.33
2019-04-30T02:05:15.849Z,41.13
2019-04-30T02:06:15.818Z,41.74
2019-04-30T02:07:15.804Z,41.63
2019-04-30T02:08:15.790Z,41.43
2019-04-30T02:09:15.780Z,41.43
2019-04-30T02:10:15.793Z,41.33
2019-04-30T02:11:15.756Z,41.74
2019-04-30T02:12:15.745Z,41.43
2019-04-30T02:13:15.733Z,41.63
2019-04-30T02:14:15.724Z,41.33
2019-04-30T02:15:15.733Z,41.33
2019-04-30T02:16:15.704Z,41.74
2019-04-30T02:17:15.688Z,41.43
2019-04-30T02:18:15.677Z,41.74
2019-04-30T02:19:15.690Z,41.63
2019-04-30T02:20:15.660Z,41.53
2019-04-30T02:21:15.664Z,41.33
2019-04-30T02:22:15.633Z,41.63
2019-04-30T02:23:15.621Z,41.33
2019-04-30T02:24:15.611Z,41.43
2019-04-30T02:25:15.598Z,41.53
2019-04-30T02:26:15.613Z,41.63
2019-04-30T02:27:15.576Z,41.33
2019-04-30T02:28:15.566Z,41.43
2019-04-30T02:29:15.554Z,41.43
2019-04-30T02:30:15.544Z,41.83
2019-04-30T02:31:15.557Z,41.33
2019-04-30T02:32:15.543Z,41.74
2019-04-30T02:33:15.513Z,41.83
2019-04-30T02:34:15.498Z,41.74
2019-04-30T02:35:15.489Z,41.83
2019-04-30T02:36:15.496Z,41.74
2019-04-30T02:37:15.464Z,41.43
2019-04-30T02:38:15.453Z,41.74
2019-04-30T02:39:15.441Z,41.33
2019-04-30T02:40:15.432Z,41.63
2019-04-30T02:41:15.444Z,41.74
2019-04-30T02:42:15.411Z,41.63
2019-04-30T02:43:15.395Z,41.74
2019-04-30T02:44:15.386Z,41.83
2019-04-30T02:45:15.394Z,41.83
2019-04-30T02:46:15.361Z,41.74
2019-04-30T02:47:15.386Z,41.74
2019-04-30T02:48:15.343Z,41.74
2019-04-30T02:49:15.333Z,41.53
2019-04-30T02:50:18.655Z,41.43
2019-04-30T02:51:16.311Z,41.63
2019-04-30T02:52:15.316Z,41.74
2019-04-30T02:53:15.283Z,41.74
2019-04-30T02:54:15.271Z,41.53
2019-04-30T02:55:15.266Z,41.43
2019-04-30T02:56:15.256Z,41.83
2019-04-30T02:57:15.266Z,41.53
2019-04-30T02:58:15.229Z,41.74
2019-04-30T02:59:15.214Z,41.93
2019-04-30T03:00:15.205Z,41.74
2019-04-30T03:01:15.197Z,41.93
2019-04-30T03:02:15.203Z,41.63
2019-04-30T03:03:15.171Z,41.83
2019-04-30T03:04:15.158Z,41.93
2019-04-30T03:05:15.151Z,41.63
2019-04-30T03:06:15.142Z,41.43
2019-04-30T03:07:15.149Z,41.63
2019-04-30T03:08:15.123Z,41.43
2019-04-30T03:09:15.102Z,41.33
2019-04-30T03:10:15.093Z,41.33
2019-04-30T03:11:15.084Z,41.13
2019-04-30T03:12:15.094Z,41.13
2019-04-30T03:13:15.057Z,41.63
2019-04-30T03:14:15.046Z,41.74
2019-04-30T03:15:15.042Z,41.93
2019-04-30T03:16:15.024Z,41.53
2019-04-30T03:17:15.035Z,41.53
2019-04-30T03:18:15.000Z,41.43
2019-04-30T03:19:14.991Z,42.03
2019-04-30T03:20:27.995Z,41.31
2019-04-30T03:21:15.965Z,41.61
2019-04-30T03:22:14.977Z,41.13
2019-04-30T03:23:14.953Z,41.33
2019-04-30T03:24:14.934Z,41.01
2019-04-30T03:25:14.937Z,41.03
2019-04-30T03:26:14.911Z,41.01
2019-04-30T03:27:14.921Z,41.11
2019-04-30T03:28:14.890Z,41.11
2019-04-30T03:29:14.876Z,41.11
2019-04-30T03:30:14.889Z,41.21
2019-04-30T03:31:14.854Z,41.21
2019-04-30T03:32:14.905Z,41.01
2019-04-30T03:33:14.834Z,41.03
2019-04-30T03:34:23.294Z,40.81
2019-04-30T03:35:15.828Z,40.81
2019-04-30T03:36:14.799Z,40.71
2019-04-30T03:37:14.815Z,40.71
2019-04-30T03:38:14.775Z,41.01
2019-04-30T03:39:14.772Z,40.81
2019-04-30T03:40:14.753Z,40.71
2019-04-30T03:41:14.742Z,40.81
2019-04-30T03:42:14.729Z,40.71
2019-04-30T03:43:14.740Z,40.81
2019-04-30T03:44:21.611Z,40.81
2019-04-30T03:45:15.697Z,40.71
2019-04-30T03:46:14.686Z,40.61
2019-04-30T03:47:14.673Z,40.91
2019-04-30T03:48:14.693Z,40.91
2019-04-30T03:49:14.651Z,41.31
2019-04-30T03:50:14.641Z,40.99
2019-04-30T03:51:14.629Z,41.01
2019-04-30T03:52:14.621Z,41.19
2019-04-30T03:53:14.628Z,41.09
2019-04-30T03:54:14.603Z,41.29
2019-04-30T03:55:14.589Z,41.69
2019-04-30T03:56:14.577Z,40.79
2019-04-30T03:57:14.561Z,40.79
2019-04-30T03:58:14.573Z,41.49
2019-04-30T03:59:14.539Z,40.79
2019-04-30T04:00:14.529Z,41.19
2019-04-30T04:01:14.516Z,40.89
2019-04-30T04:02:14.509Z,40.67
2019-04-30T04:03:14.520Z,41.17
2019-04-30T04:04:14.497Z,40.77
2019-04-30T04:05:14.471Z,40.17
2019-04-30T04:06:14.460Z,40.37
2019-04-30T04:07:14.449Z,40.37
2019-04-30T04:08:14.459Z,40.57
2019-04-30T04:09:14.425Z,40.37
2019-04-30T04:10:14.415Z,40.37
2019-04-30T04:11:14.403Z,40.07
2019-04-30T04:12:14.391Z,40.17
2019-04-30T04:13:14.407Z,39.87
2019-04-30T04:14:14.370Z,39.97
2019-04-30T04:15:14.357Z,40.17
2019-04-30T04:16:14.368Z,40.27
2019-04-30T04:17:14.336Z,40.27
2019-04-30T04:18:14.325Z,40.17
2019-04-30T04:19:14.335Z,40.27
2019-04-30T04:20:14.305Z,40.97
2019-04-30T04:21:16.955Z,40.27
2019-04-30T04:22:14.279Z,40.27
2019-04-30T04:23:14.270Z,40.27
2019-04-30T04:24:14.280Z,40.17
2019-04-30T04:25:14.246Z,40.27
2019-04-30T04:26:14.233Z,40.27
2019-04-30T04:27:14.223Z,40.27
2019-04-30T04:28:14.212Z,40.17
2019-04-30T04:29:14.221Z,40.27
2019-04-30T04:30:14.192Z,40.27
2019-04-30T04:31:14.177Z,40.27
2019-04-30T04:32:14.168Z,40.17
2019-04-30T04:33:14.156Z,40.17
2019-04-30T04:34:14.165Z,40.27
2019-04-30T04:35:14.149Z,40.17
2019-04-30T04:36:14.136Z,40.17
2019-04-30T04:37:14.113Z,40.35
2019-04-30T04:38:14.102Z,40.45
2019-04-30T04:39:14.109Z,41.17
2019-04-30T04:40:14.078Z,40.27
2019-04-30T04:41:14.067Z,40.15
2019-04-30T04:42:14.057Z,40.35
2019-04-30T04:43:14.042Z,40.37
2019-04-30T04:44:14.053Z,40.35
2019-04-30T04:45:14.024Z,40.55
2019-04-30T04:46:14.010Z,41.17
2019-04-30T04:47:16.067Z,40.35
2019-04-30T04:48:13.989Z,40.15
2019-04-30T04:49:13.998Z,40.35
2019-04-30T04:50:13.966Z,40.67
2019-04-30T04:51:27.750Z,40.47
2019-04-30T04:52:14.946Z,40.55
2019-04-30T04:53:13.929Z,40.37
2019-04-30T04:54:13.926Z,40.55
2019-04-30T04:55:13.932Z,40.25
2019-04-30T04:56:13.895Z,40.25
2019-04-30T04:57:17.957Z,40.05
2019-04-30T04:58:14.874Z,39.95
2019-04-30T04:59:13.881Z,39.65
2019-04-30T05:00:13.878Z,39.77
2019-04-30T05:01:13.843Z,39.75
2019-04-30T05:02:13.828Z,39.95
2019-04-30T05:03:13.817Z,39.55
2019-04-30T05:04:13.806Z,39.47
2019-04-30T05:05:13.816Z,39.55
2019-04-30T05:06:13.783Z,39.57
2019-04-30T05:07:13.786Z,39.55
2019-04-30T05:08:13.761Z,39.45
2019-04-30T05:09:13.749Z,39.85
2019-04-30T05:10:13.764Z,40.05
2019-04-30T05:11:13.739Z,39.75
2019-04-30T05:12:13.714Z,39.75
2019-04-30T05:13:13.703Z,40.05
2019-04-30T05:14:13.692Z,39.75
2019-04-30T05:15:13.702Z,39.75
2019-04-30T05:16:13.673Z,39.75
2019-04-30T05:17:13.661Z,39.75
2019-04-30T05:18:13.671Z,39.65
2019-04-30T05:19:13.636Z,39.75
2019-04-30T05:20:13.624Z,39.85
2019-04-30T05:21:13.634Z,39.95
2019-04-30T05:22:13.605Z,39.85
2019-04-30T05:23:13.594Z,40.05
2019-04-30T05:24:13.579Z,40.05
2019-04-30T05:25:13.568Z,39.75
2019-04-30T05:26:13.579Z,39.73
2019-04-30T05:27:13.545Z,39.75
2019-04-30T05:28:13.533Z,39.65
2019-04-30T05:29:13.527Z,40.25
2019-04-30T05:30:13.511Z,40.33
2019-04-30T05:31:13.521Z,40.33
2019-04-30T05:32:13.489Z,40.45
2019-04-30T05:33:13.481Z,40.23
2019-04-30T05:34:13.466Z,40.33
2019-04-30T05:35:13.456Z,40.45
2019-04-30T05:36:13.476Z,40.33
2019-04-30T05:37:13.434Z,41.55
2019-04-30T05:38:13.424Z,40.93
2019-04-30T05:39:13.416Z,41.13
2019-04-30T05:40:13.399Z,41.55
2019-04-30T05:41:13.410Z,41.63
2019-04-30T05:42:13.377Z,42.24
2019-04-30T05:43:13.369Z,41.96
2019-04-30T05:44:13.357Z,41.96
2019-04-30T05:45:13.351Z,41.35
2019-04-30T05:46:14.138Z,41.83
2019-04-30T05:47:13.321Z,41.96
2019-04-30T05:48:13.313Z,43.16
2019-04-30T05:49:13.298Z,42.85
2019-04-30T05:50:13.292Z,42.96
2019-04-30T05:51:13.275Z,43.55
2019-04-30T05:52:13.858Z,44.06
2019-04-30T05:53:13.257Z,44.06
2019-04-30T05:54:13.241Z,44.56
2019-04-30T05:55:13.231Z,44.16
2019-04-30T05:56:13.219Z,45.06
2019-04-30T05:57:13.229Z,45.16
2019-04-30T05:58:13.201Z,44.76
2019-04-30T05:59:16.598Z,44.76
2019-04-30T06:00:13.176Z,45.06
2019-04-30T06:01:13.164Z,45.06
2019-04-30T06:02:13.176Z,44.46
2019-04-30T06:03:24.965Z,44.96
2019-04-30T06:04:14.128Z,44.86
2019-04-30T06:05:13.120Z,44.66
2019-04-30T06:06:13.121Z,44.74
2019-04-30T06:07:13.117Z,44.93
2019-04-30T06:08:13.087Z,44.74
2019-04-30T06:09:22.574Z,44.06
2019-04-30T06:10:14.060Z,44.43
2019-04-30T06:11:13.050Z,44.43
2019-04-30T06:12:13.043Z,44.74
2019-04-30T06:13:13.064Z,44.13
2019-04-30T06:14:13.017Z,44.13
2019-04-30T06:15:13.005Z,44.04
2019-04-30T06:16:12.994Z,44.24
2019-04-30T06:17:12.982Z,44.34
2019-04-30T06:18:14.070Z,44.42
2019-04-30T06:19:12.961Z,44.13
2019-04-30T06:20:18.434Z,44.54
2019-04-30T06:21:13.944Z,44.34
2019-04-30T06:22:12.926Z,44.34
2019-04-30T06:23:12.937Z,44.51
2019-04-30T06:24:12.909Z,44.01
2019-04-30T06:25:12.906Z,43.62
2019-04-30T06:26:13.311Z,43.71
2019-04-30T06:27:12.871Z,43.71
2019-04-30T06:28:12.880Z,43.41
2019-04-30T06:29:12.851Z,43.32
2019-04-30T06:30:12.836Z,43.63
2019-04-30T06:31:12.830Z,43.74
2019-04-30T06:32:12.814Z,44.04
2019-04-30T06:33:12.844Z,43.93
2019-04-30T06:34:12.792Z,43.84
2019-04-30T06:35:12.780Z,43.82
2019-04-30T06:36:12.774Z,43.93
2019-04-30T06:37:12.757Z,44.13
2019-04-30T06:38:12.746Z,43.93
2019-04-30T06:39:12.756Z,44.26
2019-04-30T06:40:12.724Z,44.35
2019-04-30T06:41:12.712Z,44.96
2019-04-30T06:42:13.088Z,44.98
2019-04-30T06:43:12.693Z,44.98
2019-04-30T06:44:12.700Z,45.08
2019-04-30T06:45:12.669Z,45.48
2019-04-30T06:46:12.656Z,44.88
2019-04-30T06:47:12.645Z,45.90
2019-04-30T06:48:12.642Z,45.20
2019-04-30T06:49:12.648Z,46.23
2019-04-30T06:50:12.624Z,46.03
2019-04-30T06:51:12.601Z,46.15
2019-04-30T06:52:20.703Z,47.27
2019-04-30T06:53:13.581Z,47.07
2019-04-30T06:54:12.587Z,47.97
2019-04-30T06:55:12.558Z,47.00
2019-04-30T06:56:12.543Z,47.90
2019-04-30T06:57:12.545Z,48.52
2019-04-30T06:58:15.448Z,48.22
2019-04-30T06:59:12.536Z,48.44
2019-04-30T07:00:12.498Z,48.95
2019-04-30T07:01:12.487Z,49.76
2019-04-30T07:02:12.477Z,49.25
2019-04-30T07:03:12.463Z,49.37
2019-04-30T07:04:12.475Z,49.48
2019-04-30T07:05:12.444Z,49.07
2019-04-30T07:06:12.435Z,48.87
2019-04-30T07:07:14.372Z,49.48
2019-04-30T07:08:13.407Z,49.27
2019-04-30T07:09:12.421Z,49.18
2019-04-30T07:10:16.880Z,48.79
2019-04-30T07:11:13.375Z,49.70
2019-04-30T07:12:22.842Z,49.90
2019-04-30T07:13:13.354Z,49.27
2019-04-30T07:14:12.386Z,48.57
2019-04-30T07:15:13.726Z,49.77
2019-04-30T07:16:12.318Z,49.77
2019-04-30T07:17:12.310Z,49.48
2019-04-30T07:18:12.296Z,49.88
2019-04-30T07:19:12.305Z,48.97
2019-04-30T07:20:12.273Z,49.77
2019-04-30T07:21:12.263Z,49.15
2019-04-30T07:22:12.253Z,48.35
2019-04-30T07:23:12.240Z,48.05
2019-04-30T07:24:12.250Z,48.25
2019-04-30T07:25:12.217Z,47.74
2019-04-30T07:26:13.749Z,47.44
2019-04-30T07:27:13.193Z,47.34
2019-04-30T07:28:12.186Z,48.05
2019-04-30T07:29:12.378Z,48.97
2019-04-30T07:30:12.162Z,48.95
2019-04-30T07:31:14.462Z,47.85
2019-04-30T07:32:12.140Z,49.05
2019-04-30T07:33:12.132Z,47.72
2019-04-30T07:34:12.150Z,48.95
2019-04-30T07:35:12.130Z,49.13
2019-04-30T07:36:12.101Z,49.73
2019-04-30T07:37:20.676Z,48.52
2019-04-30T07:38:13.076Z,48.80
2019-04-30T07:39:12.062Z,48.10
2019-04-30T07:40:12.072Z,48.20
2019-04-30T07:41:12.041Z,49.98
2019-04-30T07:42:12.030Z,47.97
2019-04-30T07:43:12.019Z,49.56
2019-04-30T07:44:29.404Z,49.16
2019-04-30T07:45:13.024Z,49.33
2019-04-30T07:46:11.985Z,47.73
2019-04-30T07:47:11.972Z,47.13
2019-04-30T07:48:11.961Z,50.84
2019-04-30T07:49:12.087Z,49.01
2019-04-30T07:50:12.263Z,49.11
2019-04-30T07:51:12.452Z,47.11
2019-04-30T07:52:12.703Z,50.62
2019-04-30T07:53:12.409Z,48.31
2019-04-30T07:54:11.893Z,47.91
2019-04-30T07:55:11.882Z,48.81
2019-04-30T07:56:24.399Z,48.91
2019-04-30T07:57:12.860Z,48.81
2019-04-30T07:58:11.849Z,49.11
2019-04-30T07:59:11.839Z,48.91
2019-04-30T08:00:11.827Z,47.50
2019-04-30T08:01:11.837Z,48.21
2019-04-30T08:02:14.634Z,47.41
2019-04-30T08:03:11.968Z,47.43
2019-04-30T08:04:11.781Z,47.63
2019-04-30T08:05:11.770Z,48.05
2019-04-30T08:06:11.809Z,49.05
2019-04-30T08:07:11.831Z,47.77
2019-04-30T08:08:21.328Z,47.58
2019-04-30T08:09:12.725Z,48.08
2019-04-30T08:10:11.716Z,48.78
2019-04-30T08:11:22.918Z,47.88
2019-04-30T08:12:22.206Z,47.90
2019-04-30T08:13:15.108Z,47.70
2019-04-30T08:14:11.676Z,48.70
2019-04-30T08:15:11.660Z,48.63
2019-04-30T08:16:11.669Z,48.12
2019-04-30T08:17:11.636Z,49.33
2019-04-30T08:18:11.630Z,48.63
2019-04-30T08:19:11.620Z,48.55
2019-04-30T08:20:11.607Z,48.72
2019-04-30T08:21:11.619Z,48.72
2019-04-30T08:22:11.581Z,47.92
2019-04-30T08:23:17.343Z,47.72
2019-04-30T08:24:12.557Z,47.74
2019-04-30T08:25:11.570Z,48.05
2019-04-30T08:26:11.570Z,47.34
2019-04-30T08:27:11.525Z,48.55
2019-04-30T08:28:11.520Z,48.07
2019-04-30T08:29:11.504Z,49.18
2019-04-30T08:30:21.350Z,47.64
2019-04-30T08:31:12.514Z,47.74
2019-04-30T08:32:11.470Z,48.14
2019-04-30T08:33:11.462Z,48.25
2019-04-30T08:34:11.520Z,48.95
2019-04-30T08:35:11.438Z,49.45
2019-04-30T08:36:11.424Z,48.75
2019-04-30T08:37:17.286Z,49.05
2019-04-30T08:38:12.400Z,48.85
2019-04-30T08:39:11.392Z,48.05
2019-04-30T08:40:11.382Z,48.44
2019-04-30T08:41:11.369Z,48.32
2019-04-30T08:42:11.384Z,47.72
2019-04-30T08:43:11.351Z,48.72
2019-04-30T08:44:11.338Z,47.62
2019-04-30T08:45:11.323Z,46.11
2019-04-30T08:46:11.316Z,47.02
2019-04-30T08:47:11.323Z,48.22
2019-04-30T08:48:11.294Z,47.70
2019-04-30T08:49:11.372Z,48.40
2019-04-30T08:50:11.582Z,47.38
2019-04-30T08:51:13.658Z,45.47
2019-04-30T08:52:11.620Z,45.97
2019-04-30T08:53:11.672Z,45.17
2019-04-30T08:54:11.226Z,45.39
2019-04-30T08:55:16.441Z,45.59
2019-04-30T08:56:12.204Z,46.69
2019-04-30T08:57:11.213Z,46.19
2019-04-30T08:58:14.943Z,45.29
2019-04-30T08:59:11.410Z,44.79
2019-04-30T09:00:11.859Z,47.70
2019-04-30T09:01:11.149Z,45.37
2019-04-30T09:02:15.830Z,46.19
2019-04-30T09:03:12.130Z,45.67
2019-04-30T09:04:11.115Z,46.77
2019-04-30T09:05:11.105Z,46.77
2019-04-30T09:06:11.109Z,46.45
2019-04-30T09:07:11.078Z,45.04
2019-04-30T09:08:11.092Z,45.25
2019-04-30T09:09:11.243Z,44.52
2019-04-30T09:10:11.048Z,45.25
2019-04-30T09:11:22.383Z,46.35
2019-04-30T09:12:12.021Z,45.25
2019-04-30T09:13:11.057Z,45.34
2019-04-30T09:14:10.999Z,45.65
2019-04-30T09:15:10.989Z,44.84
2019-04-30T09:16:10.978Z,45.34
2019-04-30T09:17:10.966Z,45.57
2019-04-30T09:18:12.635Z,44.96
2019-04-30T09:19:10.965Z,45.47
2019-04-30T09:20:10.934Z,45.47
2019-04-30T09:21:10.924Z,46.17
2019-04-30T09:22:14.895Z,47.17
2019-04-30T09:23:11.307Z,45.26
2019-04-30T09:24:10.909Z,46.67
2019-04-30T09:25:10.877Z,46.17
2019-04-30T09:26:10.866Z,46.27
2019-04-30T09:27:10.913Z,45.14
2019-04-30T09:28:10.847Z,44.84
2019-04-30T09:29:10.858Z,44.84
2019-04-30T09:30:10.820Z,45.04
2019-04-30T09:31:10.810Z,44.64
2019-04-30T09:32:10.798Z,44.95
2019-04-30T09:33:11.168Z,45.65
2019-04-30T09:34:17.135Z,44.84
2019-04-30T09:35:11.771Z,44.44
2019-04-30T09:36:10.758Z,44.84
2019-04-30T09:37:10.746Z,45.14
2019-04-30T09:38:10.734Z,45.14
2019-04-30T09:39:10.746Z,45.34
2019-04-30T09:40:18.322Z,45.65
2019-04-30T09:41:11.699Z,44.84
2019-04-30T09:42:10.691Z,45.34
2019-04-30T09:43:10.681Z,47.45
2019-04-30T09:44:10.687Z,47.65
2019-04-30T09:45:10.658Z,48.13
2019-04-30T09:46:19.197Z,45.40
2019-04-30T09:47:11.629Z,45.50
2019-04-30T09:48:10.623Z,45.80
2019-04-30T09:49:10.629Z,47.58
2019-04-30T09:50:10.598Z,44.88
2019-04-30T09:51:11.260Z,44.88
2019-04-30T09:52:10.744Z,45.38
2019-04-30T09:53:10.970Z,47.46
2019-04-30T09:54:12.805Z,45.06
2019-04-30T09:55:10.820Z,45.26
2019-04-30T09:56:10.530Z,43.85
2019-04-30T09:57:11.441Z,43.05
2019-04-30T09:58:16.995Z,43.55
2019-04-30T09:59:11.525Z,44.96
2019-04-30T10:00:10.484Z,41.96
2019-04-30T10:01:10.472Z,43.76
2019-04-30T10:02:10.463Z,43.88
2019-04-30T10:03:11.491Z,43.88
2019-04-30T10:04:11.180Z,44.30
2019-04-30T10:05:11.019Z,41.99
2019-04-30T10:06:10.420Z,43.12
2019-04-30T10:07:10.409Z,45.62
2019-04-30T10:08:10.394Z,44.22
2019-04-30T10:09:10.383Z,45.10
2019-04-30T10:10:11.384Z,44.80
2019-04-30T10:11:10.367Z,43.50
2019-04-30T10:12:10.350Z,43.58
2019-04-30T10:13:10.342Z,43.98
2019-04-30T10:14:10.328Z,43.58
2019-04-30T10:15:10.339Z,41.88
2019-04-30T10:16:10.310Z,43.05
2019-04-30T10:17:10.293Z,43.46
2019-04-30T10:18:10.286Z,42.25
2019-04-30T10:19:10.372Z,43.05
2019-04-30T10:20:10.285Z,42.63
2019-04-30T10:21:10.248Z,42.74
2019-04-30T10:22:10.240Z,42.71
2019-04-30T10:23:10.230Z,42.32
2019-04-30T10:24:14.967Z,42.32
2019-04-30T10:25:11.228Z,41.82
2019-04-30T10:26:10.192Z,41.80
2019-04-30T10:27:13.094Z,41.89
2019-04-30T10:28:10.296Z,41.80
2019-04-30T10:29:10.179Z,41.80
2019-04-30T10:30:10.171Z,42.27
2019-04-30T10:31:10.149Z,41.77
2019-04-30T10:32:10.125Z,41.88
2019-04-30T10:33:10.191Z,42.27
2019-04-30T10:34:10.104Z,41.75
2019-04-30T10:35:10.118Z,41.85
2019-04-30T10:36:11.699Z,41.75
2019-04-30T10:37:10.099Z,41.66
2019-04-30T10:38:10.299Z,41.66
2019-04-30T10:39:10.085Z,42.05
2019-04-30T10:40:11.808Z,41.93
2019-04-30T10:41:10.145Z,42.03
2019-04-30T10:42:10.152Z,42.03
2019-04-30T10:43:11.077Z,41.63
2019-04-30T10:44:09.993Z,41.53
2019-04-30T10:45:10.098Z,41.53
2019-04-30T10:46:10.102Z,41.44
2019-04-30T10:47:10.023Z,41.52
2019-04-30T10:48:09.966Z,41.22
2019-04-30T10:49:09.977Z,41.31
2019-04-30T10:50:10.135Z,41.61
2019-04-30T10:51:10.465Z,41.02
2019-04-30T10:52:09.900Z,40.72
2019-04-30T10:53:12.196Z,41.22
2019-04-30T10:54:09.877Z,40.81
2019-04-30T10:55:09.867Z,41.02
2019-04-30T10:56:09.922Z,40.42
2019-04-30T10:57:09.844Z,40.81
2019-04-30T10:58:09.833Z,41.52
2019-04-30T10:59:09.822Z,40.00
2019-04-30T11:00:10.119Z,40.72
2019-04-30T11:01:09.822Z,40.20
2019-04-30T11:02:09.789Z,40.20
2019-04-30T11:03:19.158Z,39.90
2019-04-30T11:04:10.773Z,40.10
2019-04-30T11:05:09.756Z,39.50
2019-04-30T11:06:09.768Z,39.60
2019-04-30T11:07:09.734Z,40.10
2019-04-30T11:08:09.721Z,40.00
2019-04-30T11:09:09.713Z,40.10
2019-04-30T11:10:09.700Z,39.70
2019-04-30T11:11:09.709Z,39.78
2019-04-30T11:12:09.680Z,39.80
2019-04-30T11:13:09.666Z,40.00
2019-04-30T11:14:09.658Z,39.78
2019-04-30T11:15:09.643Z,39.80
2019-04-30T11:16:15.117Z,39.68
2019-04-30T11:17:10.795Z,39.20
2019-04-30T11:18:09.912Z,39.98
2019-04-30T11:19:10.656Z,40.18
2019-04-30T11:20:10.426Z,39.88
2019-04-30T11:21:09.894Z,39.98
2019-04-30T11:22:09.686Z,39.38
2019-04-30T11:23:14.690Z,39.96
2019-04-30T11:24:10.618Z,39.56
2019-04-30T11:25:10.165Z,39.56
2019-04-30T11:26:10.130Z,39.56
2019-04-30T11:27:11.082Z,40.36
2019-04-30T11:28:10.093Z,40.36
2019-04-30T11:29:09.684Z,40.06
2019-04-30T11:30:20.401Z,40.06
2019-04-30T11:31:10.644Z,39.46
2019-04-30T11:32:09.698Z,40.16
2019-04-30T11:33:09.653Z,40.16
2019-04-30T11:34:09.445Z,40.36
2019-04-30T11:35:09.424Z,40.14
2019-04-30T11:36:09.724Z,39.84
2019-04-30T11:37:09.420Z,40.04
2019-04-30T11:38:09.391Z,39.44
2019-04-30T11:39:09.376Z,39.34
2019-04-30T11:40:09.366Z,39.94
2019-04-30T11:41:09.355Z,39.94
2019-04-30T11:42:09.364Z,39.84
2019-04-30T11:43:09.332Z,39.74
2019-04-30T11:44:09.341Z,39.94
2019-04-30T11:45:09.309Z,38.75
2019-04-30T11:46:09.300Z,39.14
2019-04-30T11:47:09.609Z,39.12
2019-04-30T11:48:09.276Z,38.84
2019-04-30T11:49:09.720Z,39.32
2019-04-30T11:50:09.257Z,38.82
2019-04-30T11:51:09.512Z,39.12
2019-04-30T11:52:09.232Z,38.93
2019-04-30T11:53:22.643Z,38.63
2019-04-30T11:54:10.208Z,39.32
2019-04-30T11:55:09.765Z,39.03
2019-04-30T11:56:09.199Z,39.03
2019-04-30T11:57:09.180Z,38.73
2019-04-30T11:58:21.143Z,38.73
2019-04-30T11:59:10.153Z,39.03
2019-04-30T12:00:10.758Z,38.15
2019-04-30T12:01:09.415Z,37.83
2019-04-30T12:02:09.124Z,38.33
2019-04-30T12:03:09.148Z,38.53
2019-04-30T12:04:09.411Z,39.04
2019-04-30T12:05:09.087Z,38.53
2019-04-30T12:06:09.076Z,37.85
2019-04-30T12:07:09.064Z,38.13
2019-04-30T12:08:09.602Z,37.73
2019-04-30T12:09:09.238Z,37.75
2019-04-30T12:10:09.548Z,37.93
2019-04-30T12:11:09.020Z,38.13
2019-04-30T12:12:09.188Z,38.13
2019-04-30T12:13:09.589Z,37.63
2019-04-30T12:14:08.987Z,38.63
2019-04-30T12:15:09.383Z,37.83
2019-04-30T12:16:08.964Z,37.53
2019-04-30T12:17:08.959Z,37.63
2019-04-30T12:18:08.963Z,37.73
2019-04-30T12:19:09.137Z,37.83
2019-04-30T12:20:08.923Z,38.03
2019-04-30T12:21:08.910Z,37.93
2019-04-30T12:22:08.897Z,37.83
2019-04-30T12:23:11.711Z,37.93
2019-04-30T12:24:08.876Z,37.93
2019-04-30T12:25:10.072Z,38.13
2019-04-30T12:26:09.283Z,38.03
2019-04-30T12:27:08.842Z,38.13
2019-04-30T12:28:09.495Z,38.03
2019-04-30T12:29:08.926Z,38.23
2019-04-30T12:30:08.829Z,37.93
2019-04-30T12:31:09.846Z,38.13
2019-04-30T12:32:08.790Z,38.03
2019-04-30T12:33:09.114Z,38.23
2019-04-30T12:34:08.787Z,37.83
2019-04-30T12:35:08.753Z,38.13
2019-04-30T12:36:09.081Z,37.93
2019-04-30T12:37:10.638Z,38.03
2019-04-30T12:38:08.890Z,37.83
2019-04-30T12:39:08.729Z,37.83
2019-04-30T12:40:09.512Z,38.53
2019-04-30T12:41:09.685Z,37.83
2019-04-30T12:42:08.807Z,38.23
2019-04-30T12:43:08.672Z,38.23
2019-04-30T12:44:08.675Z,38.13
2019-04-30T12:45:09.490Z,37.63
2019-04-30T12:46:08.655Z,37.93
2019-04-30T12:47:09.692Z,38.13
2019-04-30T12:48:08.615Z,37.93
2019-04-30T12:49:10.234Z,37.63
2019-04-30T12:50:09.554Z,37.93
2019-04-30T12:51:08.596Z,37.73
2019-04-30T12:52:08.827Z,37.93